createdAt,value
2018-09-17T00:01:30.391Z,3.07
2018-09-17T00:03:58.830Z,3.03
2018-09-17T00:06:27.648Z,3.27
2018-09-17T00:08:56.652Z,3.20
2018-09-17T00:11:25.446Z,3.40
2018-09-17T00:13:54.237Z,3.07
2018-09-17T00:16:23.023Z,2.90
2018-09-17T00:18:51.765Z,3.07
2018-09-17T00:21:20.471Z,3.30
2018-09-17T00:23:49.414Z,3.70
2018-09-17T00:26:18.565Z,3.43
2018-09-17T00:28:47.194Z,3.80
2018-09-17T00:31:15.963Z,3.23
2018-09-17T00:33:44.444Z,3.53
2018-09-17T00:36:13.180Z,3.00
2018-09-17T00:38:41.795Z,3.00
2018-09-17T00:41:10.597Z,3.67
2018-09-17T00:43:39.081Z,3.63
2018-09-17T00:46:07.670Z,3.70
2018-09-17T00:48:36.045Z,3.60
2018-09-17T00:51:04.719Z,3.17
2018-09-17T00:53:33.171Z,3.00
2018-09-17T00:56:01.923Z,3.23
2018-09-17T00:58:30.402Z,3.30
2018-09-17T01:00:58.939Z,3.63
2018-09-17T01:03:27.488Z,3.00
2018-09-17T01:05:55.924Z,3.40
2018-09-17T01:08:24.377Z,3.27
2018-09-17T01:10:53.197Z,3.63
2018-09-17T01:13:21.975Z,3.90
2018-09-17T01:15:50.840Z,3.77
2018-09-17T01:18:19.258Z,3.37
2018-09-17T01:20:48.896Z,3.40
2018-09-17T01:23:17.357Z,3.33
2018-09-17T01:25:46.147Z,3.67
2018-09-17T01:28:14.951Z,3.93
2018-09-17T01:30:43.418Z,3.73
2018-09-17T01:33:11.978Z,3.90
2018-09-17T01:35:41.389Z,3.50
2018-09-17T01:38:09.859Z,3.47
2018-09-17T01:40:38.586Z,3.57
2018-09-17T01:43:07.666Z,3.63
2018-09-17T01:45:36.439Z,3.90
2018-09-17T01:48:04.973Z,3.57
2018-09-17T01:50:33.525Z,3.57
2018-09-17T01:53:02.022Z,3.93
2018-09-17T01:55:30.496Z,3.50
2018-09-17T01:57:59.096Z,4.23
2018-09-17T02:00:27.545Z,3.30
2018-09-17T02:02:56.148Z,4.20
2018-09-17T02:05:24.537Z,3.37
2018-09-17T02:07:53.196Z,3.30
2018-09-17T02:10:22.223Z,3.67
2018-09-17T02:12:50.630Z,4.23
2018-09-17T02:15:19.369Z,3.33
2018-09-17T02:17:48.340Z,3.70
2018-09-17T02:20:17.160Z,4.30
2018-09-17T02:22:45.641Z,3.67
2018-09-17T02:25:14.080Z,3.87
2018-09-17T02:27:42.516Z,3.70
2018-09-17T02:30:10.976Z,4.20
2018-09-17T02:32:39.359Z,3.93
2018-09-17T02:35:07.790Z,3.87
2018-09-17T02:37:36.277Z,3.80
2018-09-17T02:40:07.935Z,3.70
2018-09-17T02:42:37.247Z,3.87
2018-09-17T02:45:06.064Z,3.70
2018-09-17T02:47:34.616Z,4.20
2018-09-17T02:50:03.404Z,4.03
2018-09-17T02:52:32.398Z,4.07
2018-09-17T02:55:00.935Z,3.67
2018-09-17T02:57:29.664Z,4.20
2018-09-17T02:59:58.275Z,4.07
2018-09-17T03:02:26.738Z,3.83
2018-09-17T03:04:55.287Z,4.17
2018-09-17T03:07:23.789Z,4.30
2018-09-17T03:09:52.275Z,4.27
2018-09-17T03:12:20.594Z,4.33
2018-09-17T03:14:49.223Z,3.30
2018-09-17T03:17:18.999Z,4.53
2018-09-17T03:19:48.578Z,3.77
2018-09-17T03:22:17.136Z,3.87
2018-09-17T03:24:45.808Z,4.03
2018-09-17T03:27:14.291Z,3.87
2018-09-17T03:29:42.836Z,3.90
2018-09-17T03:32:11.300Z,3.53
2018-09-17T03:34:39.740Z,3.90
2018-09-17T03:37:08.221Z,3.80
2018-09-17T03:39:36.747Z,4.00
2018-09-17T03:42:05.414Z,3.73
2018-09-17T03:44:33.859Z,4.00
2018-09-17T03:47:02.352Z,4.03
2018-09-17T03:49:31.239Z,4.50
2018-09-17T03:51:59.653Z,4.07
2018-09-17T03:54:28.138Z,4.23
2018-09-17T03:56:56.643Z,4.00
2018-09-17T03:59:25.028Z,4.00
2018-09-17T04:01:53.747Z,4.00
2018-09-17T04:04:22.355Z,4.17
2018-09-17T04:06:50.874Z,4.27
2018-09-17T04:09:19.325Z,3.73
2018-09-17T04:11:47.875Z,4.07
2018-09-17T04:14:16.464Z,3.77
2018-09-17T04:16:45.014Z,4.07
2018-09-17T04:19:13.440Z,4.00
2018-09-17T04:21:41.929Z,3.83
2018-09-17T04:24:10.503Z,3.87
2018-09-17T04:26:39.013Z,3.77
2018-09-17T04:29:10.767Z,4.53
2018-09-17T04:31:39.266Z,4.03
2018-09-17T04:34:07.765Z,4.40
2018-09-17T04:36:36.376Z,4.03
2018-09-17T04:39:06.830Z,3.97
2018-09-17T04:41:35.296Z,3.70
2018-09-17T04:44:03.788Z,4.13
2018-09-17T04:46:32.168Z,4.07
2018-09-17T04:49:00.756Z,4.17
2018-09-17T04:51:29.310Z,4.40
2018-09-17T04:53:57.953Z,4.23
2018-09-17T04:56:26.430Z,4.30
2018-09-17T04:58:55.480Z,4.20
2018-09-17T05:01:24.149Z,3.70
2018-09-17T05:03:52.638Z,3.80
2018-09-17T05:06:21.190Z,3.57
2018-09-17T05:08:49.746Z,3.83
2018-09-17T05:11:18.416Z,3.97
2018-09-17T05:13:47.019Z,3.97
2018-09-17T05:16:15.689Z,3.27
2018-09-17T05:18:44.201Z,3.50
2018-09-17T05:21:12.844Z,3.87
2018-09-17T05:23:42.278Z,3.40
2018-09-17T05:26:10.782Z,3.47
2018-09-17T05:28:39.337Z,3.50
2018-09-17T05:31:07.877Z,3.57
2018-09-17T05:33:36.463Z,3.90
2018-09-17T05:36:04.963Z,3.30
2018-09-17T05:38:35.491Z,3.00
2018-09-17T05:41:04.594Z,3.43
2018-09-17T05:43:33.240Z,3.03
2018-09-17T05:46:02.540Z,3.33
2018-09-17T05:48:31.042Z,3.50
2018-09-17T05:50:59.653Z,3.10
2018-09-17T05:53:28.368Z,3.23
2018-09-17T05:55:57.131Z,3.77
2018-09-17T05:58:25.805Z,3.57
2018-09-17T06:00:54.689Z,3.30
2018-09-17T06:03:23.384Z,3.00
2018-09-17T06:05:52.078Z,3.27
2018-09-17T06:08:20.613Z,3.60
2018-09-17T06:10:49.266Z,2.90
2018-09-17T06:13:17.779Z,3.10
2018-09-17T06:15:46.264Z,3.00
2018-09-17T06:18:16.325Z,3.00
2018-09-17T06:20:44.832Z,2.73
2018-09-17T06:23:13.441Z,2.93
2018-09-17T06:25:41.944Z,2.87
2018-09-17T06:28:10.470Z,3.03
2018-09-17T06:30:39.009Z,2.97
2018-09-17T06:33:07.504Z,3.87
2018-09-17T06:35:35.974Z,3.80
2018-09-17T06:38:04.327Z,4.00
2018-09-17T06:40:33.195Z,3.83
2018-09-17T06:43:01.708Z,3.57
2018-09-17T06:45:30.227Z,3.40
2018-09-17T06:47:59.428Z,4.10
2018-09-17T06:50:27.906Z,4.07
2018-09-17T06:52:56.386Z,4.27
2018-09-17T06:55:24.894Z,4.30
2018-09-17T06:57:53.352Z,3.93
2018-09-17T07:00:21.840Z,3.40
2018-09-17T07:02:50.393Z,3.07
2018-09-17T07:05:18.963Z,3.83
2018-09-17T07:07:47.575Z,3.40
2018-09-17T07:10:16.091Z,3.33
2018-09-17T07:12:44.553Z,3.23
2018-09-17T07:15:13.057Z,3.60
2018-09-17T07:17:41.678Z,2.83
2018-09-17T07:20:10.176Z,2.73
2018-09-17T07:22:38.655Z,3.10
2018-09-17T07:25:08.001Z,2.90
2018-09-17T07:27:36.692Z,2.90
2018-09-17T07:30:05.396Z,3.20
2018-09-17T07:32:33.994Z,2.90
2018-09-17T07:35:02.473Z,3.43
2018-09-17T07:37:31.059Z,2.90
2018-09-17T07:39:59.470Z,2.80
2018-09-17T07:42:27.987Z,2.90
2018-09-17T07:44:56.535Z,3.40
2018-09-17T07:47:25.139Z,3.20
2018-09-17T07:49:53.658Z,3.17
2018-09-17T07:52:22.206Z,3.40
2018-09-17T07:54:51.479Z,3.23
2018-09-17T07:57:20.143Z,3.03
2018-09-17T07:59:48.868Z,2.30
2018-09-17T08:02:17.453Z,2.50
2018-09-17T08:04:46.011Z,2.40
2018-09-17T08:07:14.503Z,2.70
2018-09-17T08:09:43.034Z,2.57
2018-09-17T08:12:11.659Z,2.50
2018-09-17T08:14:40.163Z,2.37
2018-09-17T08:17:08.648Z,2.53
2018-09-17T08:19:37.847Z,2.73
2018-09-17T08:22:06.334Z,2.67
2018-09-17T08:24:35.067Z,2.40
2018-09-17T08:27:03.564Z,2.43
2018-09-17T08:29:32.003Z,2.07
2018-09-17T08:32:00.490Z,2.07
2018-09-17T08:34:29.057Z,2.20
2018-09-17T08:36:57.532Z,2.07
2018-09-17T08:39:26.004Z,2.20
2018-09-17T08:41:54.503Z,1.80
2018-09-17T08:44:23.051Z,1.93
2018-09-17T08:46:51.449Z,1.80
2018-09-17T08:49:19.980Z,1.83
2018-09-17T08:51:48.550Z,2.10
2018-09-17T08:54:17.059Z,2.00
2018-09-17T08:56:49.793Z,1.90
2018-09-17T08:59:23.732Z,2.20
2018-09-17T09:01:57.795Z,1.87
2018-09-17T09:04:31.432Z,1.90
2018-09-17T09:07:05.815Z,1.80
2018-09-17T09:09:34.245Z,1.90
2018-09-17T09:12:08.043Z,1.67
2018-09-17T09:14:39.172Z,1.77
2018-09-17T09:17:08.760Z,1.87
2018-09-17T09:19:37.255Z,2.20
2018-09-17T09:22:05.625Z,1.97
2018-09-17T09:24:34.011Z,2.20
2018-09-17T09:27:03.328Z,2.00
2018-09-17T09:29:31.783Z,1.83
2018-09-17T09:32:00.272Z,1.80
2018-09-17T09:34:28.729Z,2.03
2018-09-17T09:36:57.207Z,2.00
2018-09-17T09:39:25.689Z,2.13
2018-09-17T09:41:54.126Z,1.80
2018-09-17T09:44:22.603Z,1.97
2018-09-17T09:46:51.117Z,1.80
2018-09-17T09:49:19.596Z,2.30
2018-09-17T09:51:48.120Z,1.70
2018-09-17T09:54:16.704Z,1.97
2018-09-17T09:56:45.235Z,1.77
2018-09-17T09:59:13.684Z,1.87
2018-09-17T10:01:47.384Z,1.90
2018-09-17T10:04:22.768Z,1.90
2018-09-17T10:06:52.267Z,1.80
2018-09-17T10:09:26.074Z,1.70
2018-09-17T10:11:59.854Z,1.90
2018-09-17T10:14:33.613Z,1.83
2018-09-17T10:17:07.810Z,1.80
2018-09-17T10:19:40.526Z,2.07
2018-09-17T10:22:09.124Z,1.70
2018-09-17T10:24:37.717Z,1.83
2018-09-17T10:27:06.210Z,2.20
2018-09-17T10:29:34.699Z,1.90
2018-09-17T10:32:03.239Z,1.87
2018-09-17T10:34:31.698Z,1.83
2018-09-17T10:37:00.312Z,2.20
2018-09-17T10:39:28.868Z,1.80
2018-09-17T10:41:57.448Z,1.60
2018-09-17T10:44:25.992Z,1.93
2018-09-17T10:46:54.495Z,2.00
2018-09-17T10:49:22.973Z,2.20
2018-09-17T10:51:51.595Z,1.97
2018-09-17T10:54:20.144Z,1.93
2018-09-17T10:56:48.675Z,2.23
2018-09-17T10:59:17.252Z,2.13
2018-09-17T11:01:45.717Z,1.93
2018-09-17T11:04:14.326Z,2.53
2018-09-17T11:06:42.910Z,2.20
2018-09-17T11:09:12.822Z,2.40
2018-09-17T11:11:41.755Z,2.20
2018-09-17T11:14:10.901Z,2.23
2018-09-17T11:16:39.589Z,2.77
2018-09-17T11:19:08.477Z,2.20
2018-09-17T11:21:37.284Z,2.20
2018-09-17T11:24:05.753Z,2.10
2018-09-17T11:26:34.532Z,2.27
2018-09-17T11:29:03.089Z,2.20
2018-09-17T11:31:31.840Z,2.43
2018-09-17T11:34:00.415Z,2.27
2018-09-17T11:36:28.982Z,2.27
2018-09-17T11:38:58.194Z,1.95
2018-09-17T11:41:26.616Z,1.72
2018-09-17T11:43:55.152Z,2.00
2018-09-17T11:46:23.663Z,1.70
2018-09-17T11:48:52.185Z,2.17
2018-09-17T11:51:20.649Z,2.30
2018-09-17T11:53:49.120Z,2.05
2018-09-17T11:56:17.605Z,2.27
2018-09-17T11:58:46.101Z,1.80
2018-09-17T12:03:25.503Z,2.30
2018-09-17T12:06:01.187Z,2.20
2018-09-17T12:08:29.822Z,2.12
2018-09-17T12:10:58.647Z,2.05
2018-09-17T12:13:27.375Z,2.10
2018-09-17T12:15:56.039Z,2.20
2018-09-17T12:18:24.967Z,2.20
2018-09-17T12:20:55.290Z,2.55
2018-09-17T12:23:24.203Z,1.98
2018-09-17T12:25:52.890Z,1.90
2018-09-17T12:28:22.569Z,2.10
2018-09-17T12:30:51.855Z,2.00
2018-09-17T12:33:20.438Z,2.30
2018-09-17T12:35:49.974Z,2.15
2018-09-17T12:38:18.865Z,1.67
2018-09-17T12:40:47.495Z,1.77
2018-09-17T12:43:16.200Z,2.12
2018-09-17T12:45:45.723Z,1.80
2018-09-17T12:48:14.593Z,2.52
2018-09-17T12:50:49.910Z,1.90
2018-09-17T12:53:19.411Z,2.22
2018-09-17T12:55:48.164Z,2.10
2018-09-17T12:58:17.114Z,2.00
2018-09-17T13:00:47.171Z,2.00
2018-09-17T13:03:16.067Z,2.05
2018-09-17T13:05:44.868Z,2.10
2018-09-17T13:08:13.717Z,1.87
2018-09-17T13:10:42.443Z,2.17
2018-09-17T13:13:11.494Z,2.00
2018-09-17T13:15:45.466Z,2.35
2018-09-17T13:18:14.084Z,1.77
2018-09-17T13:20:42.767Z,1.70
2018-09-17T13:23:11.548Z,1.87
2018-09-17T13:25:40.302Z,2.10
2018-09-17T13:28:09.191Z,2.40
2018-09-17T13:30:37.883Z,2.33
2018-09-17T13:33:06.617Z,2.05
2018-09-17T13:35:35.483Z,2.10
2018-09-17T13:38:04.140Z,1.90
2018-09-17T13:40:32.829Z,2.37
2018-09-17T13:43:01.324Z,2.22
2018-09-17T13:45:30.112Z,2.30
2018-09-17T13:47:59.424Z,2.50
2018-09-17T13:50:28.350Z,2.25
2018-09-17T13:52:59.688Z,2.52
2018-09-17T13:55:28.400Z,2.30
2018-09-17T13:57:57.090Z,2.42
2018-09-17T14:00:26.583Z,2.22
2018-09-17T14:02:55.296Z,2.35
2018-09-17T14:05:24.593Z,2.10
2018-09-17T14:07:53.320Z,2.17
2018-09-17T14:10:22.331Z,1.90
2018-09-17T14:12:51.004Z,2.20
2018-09-17T14:15:19.828Z,2.02
2018-09-17T14:17:49.064Z,2.20
2018-09-17T14:20:17.857Z,2.40
2018-09-17T14:22:46.629Z,2.47
2018-09-17T14:25:15.460Z,2.25
2018-09-17T14:27:45.211Z,2.72
2018-09-17T14:30:14.215Z,3.05
2018-09-17T14:32:48.134Z,2.98
2018-09-17T14:35:17.387Z,3.02
2018-09-17T14:37:46.291Z,2.47
2018-09-17T14:40:15.215Z,2.58
2018-09-17T14:42:44.113Z,2.27
2018-09-17T14:45:12.920Z,2.37
2018-09-17T14:47:41.692Z,2.05
2018-09-17T14:50:10.241Z,2.22
2018-09-17T14:52:39.151Z,2.00
2018-09-17T14:55:08.070Z,2.17
2018-09-17T14:57:36.928Z,2.55
2018-09-17T15:00:05.687Z,2.22
2018-09-17T15:02:34.406Z,2.45
2018-09-17T15:05:03.320Z,2.15
2018-09-17T15:07:31.845Z,2.30
2018-09-17T15:10:00.727Z,2.60
2018-09-17T15:12:29.317Z,2.08
2018-09-17T15:14:58.299Z,2.60
2018-09-17T15:17:27.003Z,2.70
2018-09-17T15:19:57.658Z,2.15
2018-09-17T15:22:26.390Z,3.20
2018-09-17T15:24:55.101Z,2.20
2018-09-17T15:27:23.834Z,2.30
2018-09-17T15:29:52.569Z,2.50
2018-09-17T15:32:21.263Z,2.10
2018-09-17T15:34:49.806Z,2.50
2018-09-17T15:37:18.640Z,2.15
2018-09-17T15:39:47.320Z,2.20
2018-09-17T15:42:16.103Z,2.30
2018-09-17T15:44:44.948Z,2.83
2018-09-17T15:47:13.468Z,1.92
2018-09-17T15:49:42.311Z,2.27
2018-09-17T15:52:12.429Z,1.98
2018-09-17T15:54:41.454Z,1.82
2018-09-17T15:57:22.376Z,2.33
2018-09-17T15:59:54.554Z,2.33
2018-09-17T16:02:23.463Z,2.40
2018-09-17T16:04:52.356Z,2.52
2018-09-17T16:07:20.871Z,2.40
2018-09-17T16:09:49.496Z,2.85
2018-09-17T16:12:18.425Z,2.47
2018-09-17T16:14:47.865Z,2.27
2018-09-17T16:17:16.951Z,2.62
2018-09-17T16:19:46.652Z,2.65
2018-09-17T16:22:15.428Z,2.33
2018-09-17T16:24:45.760Z,2.77
2018-09-17T16:27:14.696Z,2.37
2018-09-17T16:29:44.057Z,2.33
2018-09-17T16:32:13.824Z,3.00
2018-09-17T16:34:44.499Z,2.90
2018-09-17T16:37:13.479Z,3.00
2018-09-17T16:39:42.204Z,2.90
2018-09-17T16:42:10.970Z,2.50
2018-09-17T16:44:39.971Z,2.37
2018-09-17T16:47:09.464Z,3.08
2018-09-17T16:49:40.292Z,2.55
2018-09-17T16:52:09.195Z,2.80
2018-09-17T16:54:41.113Z,2.98
2018-09-17T16:57:10.551Z,2.90
2018-09-17T16:59:39.315Z,3.20
2018-09-17T17:02:08.204Z,3.63
2018-09-17T17:04:36.907Z,3.50
2018-09-17T17:07:06.618Z,3.17
2018-09-17T17:09:35.722Z,3.33
2018-09-17T17:12:04.539Z,3.20
2018-09-17T17:14:33.614Z,3.77
2018-09-17T17:17:02.520Z,3.57
2018-09-17T17:19:31.764Z,3.90
2018-09-17T17:22:00.683Z,3.80
2018-09-17T17:24:29.770Z,4.00
2018-09-17T17:26:58.943Z,4.20
2018-09-17T17:29:27.950Z,4.20
2018-09-17T17:31:57.565Z,3.83
2018-09-17T17:34:26.398Z,3.97
2018-09-17T17:36:55.868Z,3.90
2018-09-17T17:39:24.734Z,4.17
2018-09-17T17:41:53.626Z,4.17
2018-09-17T17:44:23.215Z,4.67
2018-09-17T17:46:52.411Z,4.73
2018-09-17T17:49:21.085Z,4.97
2018-09-17T17:51:49.753Z,4.53
2018-09-17T17:54:18.790Z,5.20
2018-09-17T17:56:47.586Z,4.43
2018-09-17T17:59:18.622Z,5.27
2018-09-17T18:01:47.347Z,4.10
2018-09-17T18:04:15.910Z,4.30
2018-09-17T18:06:45.599Z,5.30
2018-09-17T18:09:14.469Z,4.90
2018-09-17T18:11:44.079Z,5.40
2018-09-17T18:14:13.293Z,5.03
2018-09-17T18:16:43.114Z,5.63
2018-09-17T18:19:11.817Z,5.80
2018-09-17T18:21:40.811Z,5.93
2018-09-17T18:24:09.332Z,5.93
2018-09-17T18:26:37.827Z,5.70
2018-09-17T18:29:07.140Z,5.47
2018-09-17T18:31:35.906Z,5.90
2018-09-17T18:34:04.911Z,6.40
2018-09-17T18:36:33.455Z,5.97
2018-09-17T18:39:02.234Z,5.33
2018-09-17T18:41:30.868Z,6.13
2018-09-17T18:43:59.555Z,6.47
2018-09-17T18:46:28.239Z,5.70
2018-09-17T18:48:57.396Z,6.27
2018-09-17T18:51:26.614Z,5.60
2018-09-17T18:53:55.473Z,4.87
2018-09-17T18:56:24.841Z,5.37
2018-09-17T18:58:54.244Z,4.43
2018-09-17T19:01:23.143Z,4.77
2018-09-17T19:03:52.574Z,5.30
2018-09-17T19:06:22.517Z,4.77
2018-09-17T19:08:52.697Z,4.50
2018-09-17T19:11:21.321Z,4.87
2018-09-17T19:13:55.266Z,4.40
2018-09-17T19:16:29.289Z,4.40
2018-09-17T19:18:57.924Z,4.27
2018-09-17T19:21:30.747Z,4.83
2018-09-17T19:24:04.527Z,4.80
2018-09-17T19:26:33.132Z,4.70
2018-09-17T19:29:06.868Z,4.73
2018-09-17T19:31:39.613Z,4.87
2018-09-17T19:34:08.555Z,4.67
2018-09-17T19:36:37.918Z,5.03
2018-09-17T19:39:13.513Z,4.90
2018-09-17T19:41:42.371Z,5.07
2018-09-17T19:44:10.989Z,5.73
2018-09-17T19:46:40.064Z,5.93
2018-09-17T19:49:09.192Z,5.50
2018-09-17T19:51:43.883Z,5.27
2018-09-17T19:54:13.346Z,5.47
2018-09-17T19:56:42.818Z,5.53
2018-09-17T19:59:17.242Z,4.80
2018-09-17T20:01:46.516Z,4.50
2018-09-17T20:06:23.754Z,4.13
2018-09-17T20:08:53.126Z,4.57
2018-09-17T20:11:22.626Z,4.57
2018-09-17T20:13:52.134Z,4.30
2018-09-17T20:16:20.962Z,4.37
2018-09-17T20:18:50.199Z,4.67
2018-09-17T20:21:18.723Z,3.87
2018-09-17T20:23:47.288Z,3.97
2018-09-17T20:26:15.995Z,4.50
2018-09-17T20:28:44.690Z,4.40
2018-09-17T20:31:13.300Z,4.07
2018-09-17T20:33:42.462Z,4.23
2018-09-17T20:36:11.811Z,4.60
2018-09-17T20:38:40.349Z,4.47
2018-09-17T20:41:10.454Z,4.07
2018-09-17T20:43:41.105Z,4.10
2018-09-17T20:46:09.844Z,4.57
2018-09-17T20:48:38.567Z,3.63
2018-09-17T20:51:07.623Z,3.90
2018-09-17T20:53:36.952Z,3.73
2018-09-17T20:56:06.054Z,4.00
2018-09-17T20:58:34.737Z,4.17
2018-09-17T21:01:03.456Z,4.30
2018-09-17T21:03:32.111Z,4.67
2018-09-17T21:06:00.783Z,3.73
2018-09-17T21:08:29.429Z,3.13
2018-09-17T21:10:58.297Z,3.70
2018-09-17T21:13:27.042Z,3.40
2018-09-17T21:15:55.545Z,3.80
2018-09-17T21:18:24.469Z,3.70
2018-09-17T21:20:53.102Z,3.97
2018-09-17T21:23:22.470Z,2.77
2018-09-17T21:25:51.042Z,2.70
2018-09-17T21:28:19.514Z,3.67
2018-09-17T21:30:48.667Z,3.33
2018-09-17T21:33:17.563Z,3.37
2018-09-17T21:35:47.324Z,3.30
2018-09-17T21:38:15.804Z,3.27
2018-09-17T21:40:44.386Z,3.60
2018-09-17T21:43:12.985Z,3.43
2018-09-17T21:45:41.751Z,3.50
2018-09-17T21:48:11.293Z,3.20
2018-09-17T21:50:39.936Z,3.33
2018-09-17T21:53:08.861Z,3.03
2018-09-17T21:55:37.551Z,3.10
2018-09-17T21:58:06.236Z,2.93
2018-09-17T22:01:11.526Z,3.00
2018-09-17T22:03:40.687Z,3.20
2018-09-17T22:06:09.873Z,3.27
2018-09-17T22:08:38.526Z,3.23
2018-09-17T22:11:07.441Z,3.53
2018-09-17T22:13:36.052Z,3.30
2018-09-17T22:16:04.766Z,3.30
2018-09-17T22:18:33.461Z,3.17
2018-09-17T22:21:02.048Z,3.50
2018-09-17T22:23:30.565Z,3.60
2018-09-17T22:25:59.232Z,3.57
2018-09-17T22:28:27.625Z,3.10
2018-09-17T22:30:57.595Z,3.37
2018-09-17T22:33:26.163Z,3.77
2018-09-17T22:35:55.311Z,3.50
2018-09-17T22:38:23.784Z,3.37
2018-09-17T22:40:52.536Z,3.47
2018-09-17T22:43:21.117Z,3.50
2018-09-17T22:45:50.621Z,3.87
2018-09-17T22:48:19.705Z,4.00
2018-09-17T22:50:48.209Z,3.63
2018-09-17T22:55:59.597Z,3.60
2018-09-17T22:58:28.386Z,3.43
2018-09-17T23:00:57.003Z,3.57
2018-09-17T23:03:25.536Z,3.60
2018-09-17T23:05:54.313Z,3.20
2018-09-17T23:08:22.818Z,3.60
2018-09-17T23:10:51.911Z,3.40
2018-09-17T23:13:20.471Z,3.63
2018-09-17T23:15:49.974Z,3.20
2018-09-17T23:18:18.481Z,3.10
2018-09-17T23:20:46.990Z,3.30
2018-09-17T23:23:15.768Z,3.87
2018-09-17T23:25:44.954Z,3.47
2018-09-17T23:28:14.066Z,3.40
2018-09-17T23:30:43.571Z,3.57
2018-09-17T23:33:12.877Z,3.77
2018-09-17T23:35:41.548Z,2.83
2018-09-17T23:38:10.001Z,3.60
2018-09-17T23:40:39.117Z,3.50
2018-09-17T23:43:09.058Z,3.30
2018-09-17T23:45:38.197Z,3.20
2018-09-17T23:48:07.008Z,3.77
2018-09-17T23:50:36.130Z,3.40
2018-09-17T23:53:04.751Z,3.03
2018-09-17T23:55:33.396Z,3.33
2018-09-17T23:58:01.988Z,4.40
